sensor_id;sensor_type;location;lat;lon;timestamp;P1;durP1;ratioP1;P2;durP2;ratioP2
66761;SDS011;53672;48.176;16.338;2023-03-16T00:02:20;5.47;;;2.53;;
66761;SDS011;53672;48.176;16.338;2023-03-16T00:07:20;5.07;;;2.17;;
66761;SDS011;53672;48.176;16.338;2023-03-16T00:12:22;6.53;;;2.20;;
66761;SDS011;53672;48.176;16.338;2023-03-16T00:17:22;6.53;;;2.60;;
66761;SDS011;53672;48.176;16.338;2023-03-16T00:22:23;7.10;;;2.47;;
66761;SDS011;53672;48.176;16.338;2023-03-16T00:27:27;5.65;;;2.13;;
66761;SDS011;53672;48.176;16.338;2023-03-16T00:32:29;6.15;;;2.00;;
66761;SDS011;53672;48.176;16.338;2023-03-16T00:37:32;4.67;;;1.97;;
66761;SDS011;53672;48.176;16.338;2023-03-16T00:42:34;4.93;;;2.10;;
66761;SDS011;53672;48.176;16.338;2023-03-16T00:47:34;6.35;;;2.55;;
66761;SDS011;53672;48.176;16.338;2023-03-16T00:52:35;4.67;;;1.87;;
66761;SDS011;53672;48.176;16.338;2023-03-16T00:57:37;5.20;;;2.33;;
66761;SDS011;53672;48.176;16.338;2023-03-16T01:02:37;5.05;;;2.25;;
66761;SDS011;53672;48.176;16.338;2023-03-16T01:07:38;5.40;;;2.60;;
66761;SDS011;53672;48.176;16.338;2023-03-16T01:12:40;5.55;;;2.67;;
66761;SDS011;53672;48.176;16.338;2023-03-16T01:17:40;5.68;;;2.70;;
66761;SDS011;53672;48.176;16.338;2023-03-16T01:22:41;6.40;;;2.70;;
66761;SDS011;53672;48.176;16.338;2023-03-16T01:27:43;6.70;;;3.00;;
66761;SDS011;53672;48.176;16.338;2023-03-16T01:32:43;5.63;;;2.17;;
66761;SDS011;53672;48.176;16.338;2023-03-16T01:37:44;8.33;;;2.67;;
66761;SDS011;53672;48.176;16.338;2023-03-16T01:42:47;5.53;;;2.37;;
66761;SDS011;53672;48.176;16.338;2023-03-16T01:47:48;8.15;;;3.20;;
66761;SDS011;53672;48.176;16.338;2023-03-16T01:52:49;7.33;;;2.53;;
66761;SDS011;53672;48.176;16.338;2023-03-16T01:57:51;6.03;;;2.60;;
66761;SDS011;53672;48.176;16.338;2023-03-16T02:02:53;6.70;;;3.40;;
66761;SDS011;53672;48.176;16.338;2023-03-16T02:07:55;6.63;;;3.10;;
66761;SDS011;53672;48.176;16.338;2023-03-16T02:12:57;6.50;;;2.63;;
66761;SDS011;53672;48.176;16.338;2023-03-16T02:17:58;8.73;;;3.17;;
66761;SDS011;53672;48.176;16.338;2023-03-16T02:22:59;7.93;;;3.40;;
66761;SDS011;53672;48.176;16.338;2023-03-16T02:28:02;8.80;;;3.77;;
66761;SDS011;53672;48.176;16.338;2023-03-16T02:33:08;8.50;;;3.70;;
66761;SDS011;53672;48.176;16.338;2023-03-16T02:38:10;8.57;;;3.60;;
66761;SDS011;53672;48.176;16.338;2023-03-16T02:43:12;9.00;;;3.60;;
66761;SDS011;53672;48.176;16.338;2023-03-16T02:48:20;7.72;;;3.30;;
66761;SDS011;53672;48.176;16.338;2023-03-16T02:53:24;8.35;;;3.50;;
66761;SDS011;53672;48.176;16.338;2023-03-16T02:58:25;8.33;;;3.43;;
66761;SDS011;53672;48.176;16.338;2023-03-16T03:03:27;8.70;;;4.00;;
66761;SDS011;53672;48.176;16.338;2023-03-16T03:08:27;9.80;;;3.73;;
66761;SDS011;53672;48.176;16.338;2023-03-16T03:13:28;9.52;;;3.40;;
66761;SDS011;53672;48.176;16.338;2023-03-16T03:18:30;8.60;;;3.47;;
66761;SDS011;53672;48.176;16.338;2023-03-16T03:23:30;9.23;;;3.97;;
66761;SDS011;53672;48.176;16.338;2023-03-16T03:28:31;9.17;;;3.93;;
66761;SDS011;53672;48.176;16.338;2023-03-16T03:33:33;9.10;;;3.72;;
66761;SDS011;53672;48.176;16.338;2023-03-16T03:38:33;9.30;;;3.83;;
66761;SDS011;53672;48.176;16.338;2023-03-16T03:43:34;10.25;;;3.90;;
66761;SDS011;53672;48.176;16.338;2023-03-16T03:48:36;7.90;;;3.38;;
66761;SDS011;53672;48.176;16.338;2023-03-16T03:53:36;9.40;;;3.72;;
66761;SDS011;53672;48.176;16.338;2023-03-16T03:58:37;9.87;;;3.27;;
66761;SDS011;53672;48.176;16.338;2023-03-16T04:03:39;10.33;;;3.77;;
66761;SDS011;53672;48.176;16.338;2023-03-16T04:08:39;9.83;;;3.90;;
66761;SDS011;53672;48.176;16.338;2023-03-16T04:13:40;8.55;;;3.42;;
66761;SDS011;53672;48.176;16.338;2023-03-16T04:18:42;9.43;;;3.80;;
66761;SDS011;53672;48.176;16.338;2023-03-16T04:23:42;9.97;;;3.87;;
66761;SDS011;53672;48.176;16.338;2023-03-16T04:28:43;8.63;;;3.37;;
66761;SDS011;53672;48.176;16.338;2023-03-16T04:33:45;9.07;;;3.50;;
66761;SDS011;53672;48.176;16.338;2023-03-16T04:38:45;9.82;;;3.80;;
66761;SDS011;53672;48.176;16.338;2023-03-16T04:43:46;9.50;;;4.03;;
66761;SDS011;53672;48.176;16.338;2023-03-16T04:48:47;8.97;;;3.53;;
66761;SDS011;53672;48.176;16.338;2023-03-16T04:53:48;10.65;;;3.85;;
66761;SDS011;53672;48.176;16.338;2023-03-16T04:58:49;11.27;;;3.60;;
66761;SDS011;53672;48.176;16.338;2023-03-16T05:03:51;10.20;;;4.38;;
66761;SDS011;53672;48.176;16.338;2023-03-16T05:08:51;8.50;;;3.63;;
66761;SDS011;53672;48.176;16.338;2023-03-16T05:13:52;9.73;;;3.80;;
66761;SDS011;53672;48.176;16.338;2023-03-16T05:18:56;8.67;;;3.57;;
66761;SDS011;53672;48.176;16.338;2023-03-16T05:23:56;9.75;;;4.10;;
66761;SDS011;53672;48.176;16.338;2023-03-16T05:28:57;10.60;;;3.77;;
66761;SDS011;53672;48.176;16.338;2023-03-16T05:33:59;9.27;;;3.67;;
66761;SDS011;53672;48.176;16.338;2023-03-16T05:38:59;8.60;;;3.63;;
66761;SDS011;53672;48.176;16.338;2023-03-16T05:44:00;9.10;;;3.70;;
66761;SDS011;53672;48.176;16.338;2023-03-16T05:49:02;10.73;;;3.90;;
66761;SDS011;53672;48.176;16.338;2023-03-16T05:54:03;10.65;;;4.40;;
66761;SDS011;53672;48.176;16.338;2023-03-16T05:59:03;11.60;;;4.50;;
66761;SDS011;53672;48.176;16.338;2023-03-16T06:04:05;9.57;;;4.27;;
66761;SDS011;53672;48.176;16.338;2023-03-16T06:09:06;10.40;;;4.07;;
66761;SDS011;53672;48.176;16.338;2023-03-16T06:14:06;10.13;;;3.83;;
66761;SDS011;53672;48.176;16.338;2023-03-16T06:19:08;10.30;;;4.20;;
66761;SDS011;53672;48.176;16.338;2023-03-16T06:24:09;9.60;;;4.15;;
66761;SDS011;53672;48.176;16.338;2023-03-16T06:29:09;10.47;;;4.17;;
66761;SDS011;53672;48.176;16.338;2023-03-16T06:34:11;9.87;;;4.33;;
66761;SDS011;53672;48.176;16.338;2023-03-16T06:39:12;9.02;;;4.15;;
66761;SDS011;53672;48.176;16.338;2023-03-16T06:44:12;8.37;;;4.10;;
66761;SDS011;53672;48.176;16.338;2023-03-16T06:49:14;9.47;;;4.53;;
66761;SDS011;53672;48.176;16.338;2023-03-16T06:54:15;9.25;;;4.03;;
66761;SDS011;53672;48.176;16.338;2023-03-16T06:59:15;10.37;;;4.40;;
66761;SDS011;53672;48.176;16.338;2023-03-16T07:04:17;10.87;;;3.90;;
66761;SDS011;53672;48.176;16.338;2023-03-16T07:09:18;8.53;;;4.60;;
66761;SDS011;53672;48.176;16.338;2023-03-16T07:14:18;9.35;;;4.40;;
66761;SDS011;53672;48.176;16.338;2023-03-16T07:19:20;9.53;;;4.47;;
66761;SDS011;53672;48.176;16.338;2023-03-16T07:24:21;9.93;;;4.43;;
66761;SDS011;53672;48.176;16.338;2023-03-16T07:29:21;8.83;;;4.40;;
66761;SDS011;53672;48.176;16.338;2023-03-16T07:34:23;7.90;;;4.28;;
66761;SDS011;53672;48.176;16.338;2023-03-16T07:39:24;8.75;;;4.05;;
66761;SDS011;53672;48.176;16.338;2023-03-16T07:44:24;9.30;;;4.30;;
66761;SDS011;53672;48.176;16.338;2023-03-16T07:49:26;8.90;;;4.47;;
66761;SDS011;53672;48.176;16.338;2023-03-16T07:54:26;7.43;;;4.15;;
66761;SDS011;53672;48.176;16.338;2023-03-16T07:59:27;7.80;;;4.00;;
66761;SDS011;53672;48.176;16.338;2023-03-16T08:04:29;10.93;;;4.30;;
66761;SDS011;53672;48.176;16.338;2023-03-16T08:09:30;8.80;;;4.00;;
66761;SDS011;53672;48.176;16.338;2023-03-16T08:14:30;7.07;;;3.90;;
66761;SDS011;53672;48.176;16.338;2023-03-16T08:19:32;9.18;;;3.40;;
66761;SDS011;53672;48.176;16.338;2023-03-16T08:24:33;9.13;;;3.40;;
66761;SDS011;53672;48.176;16.338;2023-03-16T08:29:34;7.57;;;2.97;;
66761;SDS011;53672;48.176;16.338;2023-03-16T08:34:35;6.27;;;2.47;;
66761;SDS011;53672;48.176;16.338;2023-03-16T08:39:38;8.40;;;3.42;;
66761;SDS011;53672;48.176;16.338;2023-03-16T08:44:39;6.43;;;2.83;;
66761;SDS011;53672;48.176;16.338;2023-03-16T08:49:41;7.47;;;3.08;;
66761;SDS011;53672;48.176;16.338;2023-03-16T08:54:41;5.87;;;3.07;;
66761;SDS011;53672;48.176;16.338;2023-03-16T08:59:42;6.00;;;3.17;;
66761;SDS011;53672;48.176;16.338;2023-03-16T09:04:44;6.43;;;2.87;;
66761;SDS011;53672;48.176;16.338;2023-03-16T09:09:44;5.40;;;2.87;;
66761;SDS011;53672;48.176;16.338;2023-03-16T09:14:45;6.37;;;2.70;;
66761;SDS011;53672;48.176;16.338;2023-03-16T09:19:47;4.75;;;1.95;;
66761;SDS011;53672;48.176;16.338;2023-03-16T09:24:47;5.80;;;2.85;;
66761;SDS011;53672;48.176;16.338;2023-03-16T09:29:48;8.03;;;3.00;;
66761;SDS011;53672;48.176;16.338;2023-03-16T09:34:50;5.23;;;2.70;;
66761;SDS011;53672;48.176;16.338;2023-03-16T09:39:50;4.82;;;2.22;;
66761;SDS011;53672;48.176;16.338;2023-03-16T09:44:55;5.73;;;2.90;;
66761;SDS011;53672;48.176;16.338;2023-03-16T09:50:04;5.07;;;2.45;;
66761;SDS011;53672;48.176;16.338;2023-03-16T09:55:09;4.97;;;2.90;;
66761;SDS011;53672;48.176;16.338;2023-03-16T10:00:19;5.65;;;3.22;;
66761;SDS011;53672;48.176;16.338;2023-03-16T10:05:23;4.38;;;2.83;;
66761;SDS011;53672;48.176;16.338;2023-03-16T10:10:30;4.50;;;3.10;;
66761;SDS011;53672;48.176;16.338;2023-03-16T10:15:43;5.85;;;3.42;;
66761;SDS011;53672;48.176;16.338;2023-03-16T10:20:47;5.23;;;2.83;;
66761;SDS011;53672;48.176;16.338;2023-03-16T10:25:50;5.60;;;2.90;;
66761;SDS011;53672;48.176;16.338;2023-03-16T10:30:52;4.70;;;3.30;;
66761;SDS011;53672;48.176;16.338;2023-03-16T10:35:57;5.00;;;3.42;;
66761;SDS011;53672;48.176;16.338;2023-03-16T10:41:01;5.15;;;2.53;;
66761;SDS011;53672;48.176;16.338;2023-03-16T10:46:01;6.13;;;3.17;;
66761;SDS011;53672;48.176;16.338;2023-03-16T10:51:05;5.43;;;2.93;;
66761;SDS011;53672;48.176;16.338;2023-03-16T10:56:11;4.97;;;2.78;;
66761;SDS011;53672;48.176;16.338;2023-03-16T11:01:19;7.17;;;2.93;;
66761;SDS011;53672;48.176;16.338;2023-03-16T11:06:24;5.15;;;2.72;;
66761;SDS011;53672;48.176;16.338;2023-03-16T11:11:26;5.28;;;3.45;;
66761;SDS011;53672;48.176;16.338;2023-03-16T11:16:30;5.63;;;3.50;;
66761;SDS011;53672;48.176;16.338;2023-03-16T11:21:39;5.50;;;3.55;;
66761;SDS011;53672;48.176;16.338;2023-03-16T11:26:47;5.93;;;4.53;;
66761;SDS011;53672;48.176;16.338;2023-03-16T11:31:53;6.25;;;4.35;;
66761;SDS011;53672;48.176;16.338;2023-03-16T11:37:03;6.53;;;4.25;;
66761;SDS011;53672;48.176;16.338;2023-03-16T11:42:21;6.72;;;4.15;;
66761;SDS011;53672;48.176;16.338;2023-03-16T11:47:39;5.82;;;4.10;;
66761;SDS011;53672;48.176;16.338;2023-03-16T11:52:55;5.63;;;3.60;;
66761;SDS011;53672;48.176;16.338;2023-03-16T11:58:06;5.10;;;3.35;;
66761;SDS011;53672;48.176;16.338;2023-03-16T12:03:31;6.40;;;3.00;;
66761;SDS011;53672;48.176;16.338;2023-03-16T12:08:53;5.15;;;2.58;;
66761;SDS011;53672;48.176;16.338;2023-03-16T12:14:10;6.35;;;2.90;;
66761;SDS011;53672;48.176;16.338;2023-03-16T12:19:17;6.07;;;2.93;;
66761;SDS011;53672;48.176;16.338;2023-03-16T12:24:24;7.90;;;3.38;;
66761;SDS011;53672;48.176;16.338;2023-03-16T12:29:31;7.45;;;3.38;;
66761;SDS011;53672;48.176;16.338;2023-03-16T12:34:39;6.28;;;3.15;;
66761;SDS011;53672;48.176;16.338;2023-03-16T12:45:10;6.73;;;2.80;;
66761;SDS011;53672;48.176;16.338;2023-03-16T12:50:15;7.95;;;2.90;;
66761;SDS011;53672;48.176;16.338;2023-03-16T12:55:22;6.85;;;2.60;;
66761;SDS011;53672;48.176;16.338;2023-03-16T13:00:30;6.38;;;3.17;;
66761;SDS011;53672;48.176;16.338;2023-03-16T13:05:32;5.68;;;2.50;;
66761;SDS011;53672;48.176;16.338;2023-03-16T13:10:36;6.53;;;2.90;;
66761;SDS011;53672;48.176;16.338;2023-03-16T13:15:37;5.57;;;2.95;;
66761;SDS011;53672;48.176;16.338;2023-03-16T13:20:48;8.27;;;4.00;;
66761;SDS011;53672;48.176;16.338;2023-03-16T13:26:04;7.32;;;2.92;;
66761;SDS011;53672;48.176;16.338;2023-03-16T13:31:19;6.95;;;2.53;;
66761;SDS011;53672;48.176;16.338;2023-03-16T13:36:24;6.55;;;2.60;;
66761;SDS011;53672;48.176;16.338;2023-03-16T13:41:27;5.75;;;2.50;;
66761;SDS011;53672;48.176;16.338;2023-03-16T13:46:28;5.90;;;2.70;;
66761;SDS011;53672;48.176;16.338;2023-03-16T13:51:29;5.30;;;2.22;;
66761;SDS011;53672;48.176;16.338;2023-03-16T13:56:35;5.72;;;2.40;;
66761;SDS011;53672;48.176;16.338;2023-03-16T14:01:35;5.68;;;2.50;;
66761;SDS011;53672;48.176;16.338;2023-03-16T14:06:36;6.70;;;2.57;;
66761;SDS011;53672;48.176;16.338;2023-03-16T14:11:38;7.73;;;3.80;;
66761;SDS011;53672;48.176;16.338;2023-03-16T14:16:38;5.72;;;2.50;;
66761;SDS011;53672;48.176;16.338;2023-03-16T14:21:41;6.27;;;2.50;;
66761;SDS011;53672;48.176;16.338;2023-03-16T14:26:46;5.57;;;2.35;;
66761;SDS011;53672;48.176;16.338;2023-03-16T14:31:47;4.90;;;2.53;;
66761;SDS011;53672;48.176;16.338;2023-03-16T14:36:47;5.53;;;2.70;;
66761;SDS011;53672;48.176;16.338;2023-03-16T14:41:51;6.03;;;2.60;;
66761;SDS011;53672;48.176;16.338;2023-03-16T14:46:52;5.80;;;2.35;;
66761;SDS011;53672;48.176;16.338;2023-03-16T14:51:54;5.53;;;2.33;;
66761;SDS011;53672;48.176;16.338;2023-03-16T14:57:00;5.95;;;2.28;;
66761;SDS011;53672;48.176;16.338;2023-03-16T15:02:05;7.30;;;2.58;;
66761;SDS011;53672;48.176;16.338;2023-03-16T15:07:19;6.22;;;2.47;;
66761;SDS011;53672;48.176;16.338;2023-03-16T15:12:23;4.57;;;2.10;;
66761;SDS011;53672;48.176;16.338;2023-03-16T15:17:24;6.83;;;2.60;;
66761;SDS011;53672;48.176;16.338;2023-03-16T15:22:26;6.03;;;2.35;;
66761;SDS011;53672;48.176;16.338;2023-03-16T15:27:31;4.63;;;2.10;;
66761;SDS011;53672;48.176;16.338;2023-03-16T15:32:34;6.03;;;2.00;;
66761;SDS011;53672;48.176;16.338;2023-03-16T15:37:34;5.03;;;2.30;;
66761;SDS011;53672;48.176;16.338;2023-03-16T15:42:37;5.50;;;2.05;;
66761;SDS011;53672;48.176;16.338;2023-03-16T15:47:37;6.05;;;2.08;;
66761;SDS011;53672;48.176;16.338;2023-03-16T15:52:38;6.03;;;1.90;;
66761;SDS011;53672;48.176;16.338;2023-03-16T15:57:43;5.32;;;1.92;;
66761;SDS011;53672;48.176;16.338;2023-03-16T16:02:43;7.03;;;2.38;;
66761;SDS011;53672;48.176;16.338;2023-03-16T16:07:44;6.60;;;2.10;;
66761;SDS011;53672;48.176;16.338;2023-03-16T16:12:46;4.77;;;2.20;;
66761;SDS011;53672;48.176;16.338;2023-03-16T16:17:50;3.70;;;1.63;;
66761;SDS011;53672;48.176;16.338;2023-03-16T16:22:51;6.35;;;2.08;;
66761;SDS011;53672;48.176;16.338;2023-03-16T16:27:54;6.38;;;1.80;;
66761;SDS011;53672;48.176;16.338;2023-03-16T16:32:55;6.28;;;2.03;;
66761;SDS011;53672;48.176;16.338;2023-03-16T16:37:57;6.82;;;2.47;;
66761;SDS011;53672;48.176;16.338;2023-03-16T16:42:59;5.87;;;2.30;;
66761;SDS011;53672;48.176;16.338;2023-03-16T16:48:05;5.38;;;2.20;;
66761;SDS011;53672;48.176;16.338;2023-03-16T16:53:19;6.25;;;2.30;;
66761;SDS011;53672;48.176;16.338;2023-03-16T16:58:21;8.65;;;2.53;;
66761;SDS011;53672;48.176;16.338;2023-03-16T17:03:23;8.50;;;2.47;;
66761;SDS011;53672;48.176;16.338;2023-03-16T17:08:25;8.10;;;2.47;;
66761;SDS011;53672;48.176;16.338;2023-03-16T17:13:28;6.73;;;2.33;;
66761;SDS011;53672;48.176;16.338;2023-03-16T17:18:35;5.85;;;2.00;;
66761;SDS011;53672;48.176;16.338;2023-03-16T17:23:36;8.03;;;2.43;;
66761;SDS011;53672;48.176;16.338;2023-03-16T17:28:39;7.23;;;2.57;;
66761;SDS011;53672;48.176;16.338;2023-03-16T17:33:43;6.38;;;2.03;;
66761;SDS011;53672;48.176;16.338;2023-03-16T17:38:44;7.05;;;2.20;;
66761;SDS011;53672;48.176;16.338;2023-03-16T17:43:47;5.60;;;2.00;;
66761;SDS011;53672;48.176;16.338;2023-03-16T17:48:49;7.13;;;2.33;;
66761;SDS011;53672;48.176;16.338;2023-03-16T17:53:51;7.53;;;2.57;;
66761;SDS011;53672;48.176;16.338;2023-03-16T17:58:53;8.50;;;2.50;;
66761;SDS011;53672;48.176;16.338;2023-03-16T18:03:55;7.13;;;2.00;;
66761;SDS011;53672;48.176;16.338;2023-03-16T18:08:56;10.85;;;2.70;;
66761;SDS011;53672;48.176;16.338;2023-03-16T18:13:59;9.30;;;2.67;;
66761;SDS011;53672;48.176;16.338;2023-03-16T18:19:03;10.77;;;3.57;;
66761;SDS011;53672;48.176;16.338;2023-03-16T18:24:13;10.52;;;3.63;;
66761;SDS011;53672;48.176;16.338;2023-03-16T18:29:16;11.82;;;3.80;;
66761;SDS011;53672;48.176;16.338;2023-03-16T18:34:17;10.02;;;3.80;;
66761;SDS011;53672;48.176;16.338;2023-03-16T18:39:21;10.68;;;3.55;;
66761;SDS011;53672;48.176;16.338;2023-03-16T18:44:24;9.33;;;3.47;;
66761;SDS011;53672;48.176;16.338;2023-03-16T18:49:26;12.80;;;4.10;;
66761;SDS011;53672;48.176;16.338;2023-03-16T18:54:31;9.63;;;3.80;;
66761;SDS011;53672;48.176;16.338;2023-03-16T18:59:34;8.43;;;3.55;;
66761;SDS011;53672;48.176;16.338;2023-03-16T19:04:36;9.07;;;4.30;;
66761;SDS011;53672;48.176;16.338;2023-03-16T19:09:37;11.93;;;4.00;;
66761;SDS011;53672;48.176;16.338;2023-03-16T19:14:42;11.45;;;4.10;;
66761;SDS011;53672;48.176;16.338;2023-03-16T19:19:44;10.68;;;4.15;;
66761;SDS011;53672;48.176;16.338;2023-03-16T19:24:45;14.05;;;4.50;;
66761;SDS011;53672;48.176;16.338;2023-03-16T19:29:51;8.75;;;3.72;;
66761;SDS011;53672;48.176;16.338;2023-03-16T19:34:55;13.63;;;4.93;;
66761;SDS011;53672;48.176;16.338;2023-03-16T19:39:56;11.75;;;5.00;;
66761;SDS011;53672;48.176;16.338;2023-03-16T19:44:59;14.63;;;4.55;;
66761;SDS011;53672;48.176;16.338;2023-03-16T19:50:00;12.40;;;4.85;;
66761;SDS011;53672;48.176;16.338;2023-03-16T19:55:05;12.90;;;4.20;;
66761;SDS011;53672;48.176;16.338;2023-03-16T20:00:14;12.07;;;4.60;;
66761;SDS011;53672;48.176;16.338;2023-03-16T20:05:19;9.73;;;4.05;;
66761;SDS011;53672;48.176;16.338;2023-03-16T20:10:24;13.57;;;4.15;;
66761;SDS011;53672;48.176;16.338;2023-03-16T20:15:29;13.30;;;4.25;;
66761;SDS011;53672;48.176;16.338;2023-03-16T20:20:31;12.85;;;4.07;;
66761;SDS011;53672;48.176;16.338;2023-03-16T20:25:32;9.00;;;3.80;;
66761;SDS011;53672;48.176;16.338;2023-03-16T20:30:36;14.25;;;3.95;;
66761;SDS011;53672;48.176;16.338;2023-03-16T20:35:38;10.83;;;3.87;;
66761;SDS011;53672;48.176;16.338;2023-03-16T20:40:39;9.93;;;4.40;;
66761;SDS011;53672;48.176;16.338;2023-03-16T20:45:41;12.20;;;4.47;;
66761;SDS011;53672;48.176;16.338;2023-03-16T20:50:43;12.90;;;4.50;;
66761;SDS011;53672;48.176;16.338;2023-03-16T20:55:44;12.93;;;5.03;;
66761;SDS011;53672;48.176;16.338;2023-03-16T21:00:47;14.73;;;5.00;;
66761;SDS011;53672;48.176;16.338;2023-03-16T21:05:49;13.07;;;5.18;;
66761;SDS011;53672;48.176;16.338;2023-03-16T21:10:51;13.18;;;4.80;;
66761;SDS011;53672;48.176;16.338;2023-03-16T21:15:55;13.13;;;4.80;;
66761;SDS011;53672;48.176;16.338;2023-03-16T21:20:58;11.88;;;5.10;;
66761;SDS011;53672;48.176;16.338;2023-03-16T21:25:59;12.87;;;5.90;;
66761;SDS011;53672;48.176;16.338;2023-03-16T21:31:02;11.35;;;5.38;;
66761;SDS011;53672;48.176;16.338;2023-03-16T21:36:05;15.40;;;5.93;;
66761;SDS011;53672;48.176;16.338;2023-03-16T21:41:11;14.20;;;5.75;;
66761;SDS011;53672;48.176;16.338;2023-03-16T21:46:14;13.48;;;6.13;;
66761;SDS011;53672;48.176;16.338;2023-03-16T21:51:17;13.70;;;5.90;;
66761;SDS011;53672;48.176;16.338;2023-03-16T21:56:19;11.48;;;5.03;;
66761;SDS011;53672;48.176;16.338;2023-03-16T22:01:23;15.10;;;6.07;;
66761;SDS011;53672;48.176;16.338;2023-03-16T22:06:25;15.32;;;6.50;;
66761;SDS011;53672;48.176;16.338;2023-03-16T22:11:27;13.87;;;6.43;;
66761;SDS011;53672;48.176;16.338;2023-03-16T22:16:30;18.88;;;8.27;;
66761;SDS011;53672;48.176;16.338;2023-03-16T22:21:34;16.40;;;7.88;;
66761;SDS011;53672;48.176;16.338;2023-03-16T22:26:36;15.63;;;7.33;;
66761;SDS011;53672;48.176;16.338;2023-03-16T22:31:38;17.63;;;8.00;;
66761;SDS011;53672;48.176;16.338;2023-03-16T22:36:39;18.92;;;7.53;;
66761;SDS011;53672;48.176;16.338;2023-03-16T22:41:40;18.00;;;7.63;;
66761;SDS011;53672;48.176;16.338;2023-03-16T22:46:42;15.67;;;6.53;;
66761;SDS011;53672;48.176;16.338;2023-03-16T22:51:42;19.48;;;6.85;;
66761;SDS011;53672;48.176;16.338;2023-03-16T22:56:43;16.00;;;6.70;;
66761;SDS011;53672;48.176;16.338;2023-03-16T23:01:47;14.07;;;6.03;;
66761;SDS011;53672;48.176;16.338;2023-03-16T23:06:49;15.30;;;7.20;;
66761;SDS011;53672;48.176;16.338;2023-03-16T23:11:52;15.98;;;6.47;;
66761;SDS011;53672;48.176;16.338;2023-03-16T23:16:54;16.30;;;6.65;;
66761;SDS011;53672;48.176;16.338;2023-03-16T23:21:56;12.97;;;5.47;;
66761;SDS011;53672;48.176;16.338;2023-03-16T23:26:58;15.82;;;6.10;;
66761;SDS011;53672;48.176;16.338;2023-03-16T23:32:01;13.43;;;5.80;;
66761;SDS011;53672;48.176;16.338;2023-03-16T23:37:01;13.77;;;6.03;;
66761;SDS011;53672;48.176;16.338;2023-03-16T23:42:02;12.47;;;5.93;;
66761;SDS011;53672;48.176;16.338;2023-03-16T23:47:04;14.80;;;5.60;;
66761;SDS011;53672;48.176;16.338;2023-03-16T23:52:05;16.10;;;5.80;;
66761;SDS011;53672;48.176;16.338;2023-03-16T23:57:07;14.10;;;5.80;;
